Curtin, Australia

11:37 PM AWST on December 07, 2016 (GMT +0800)
Curtin | | Change Station

Elev 299 ft 17.58 °S, 123.83 °E | Updated 37 minutes ago

Overcast
Overcast
88 °F
Feels Like 94 °F
N
6
Wind Variable Wind from SSW

Today
High -- | Low -- °F
--% Chance of Precip.
Yesterday
High -- | Low -- °F
Precip. -- in
Pressure 29.74 in
Visibility -9999.0 miles
Clouds Overcast 8300 ft
Heat Index 94 °F
Dew Point 72 °F
Humidity 58%
Rainfall 0.00 in
Snow Depth Not available.
5:01 AM 6:10 PM
First Quarter, 53% visible
METAR YCIN 071500Z AUTO 21005KT //// // OVC083 31/22 Q1007 RF00.0/000.0
Pressure 29.74 in
Visibility -9999.0 miles
Clouds Overcast 8300 ft
Heat Index 94 °F
Dew Point 72 °F
Humidity 58%
Rainfall 0.00 in
Snow Depth Not available.
5:01 AM 6:10 PM
First Quarter, 53% visible
METAR YCIN 071500Z AUTO 21005KT //// // OVC083 31/22 Q1007 RF00.0/000.0

10-Day Weather Forecast

×

Almanac

Astronomy

Dec. 07, 2016 Rise Set
Actual Time
Civil Twilight
Nautical Twilight
Astronomical Twilight
Moon
Length of Visible Light
Length of Day
Tomorrow will be .
, % of the Moon is Illuminated

Today's Extremes

Country Highs Country Lows

Community

WunderPhotos

Upload Photos

1,956,118 photos uploaded!

WunderBlog® & News

Nearby

Air Quality

  Air Quality AQ Index Pollutant
Not available.

Snow Depth

Station Depth Elevation

Earthquake Activity

City Distance Mag. Time & Date
Minimum magnitude displayed is 2.5.

Coastal Water Temperatures

Place Temperature

Stations

Nearby Weather Stations

Station Location Temp. Windchill Dew Point Humidity Wind Precip. Elev Updated Type